Time;durP1;ratioP1;P1;durP2;ratioP2;P2;SDS_P1;SDS_P2;PMS_P1;PMS_P2;Temp;Humidity;BMP_temperature;BMP_pressure;BME280_temperature;BME280_humidity;BME280_pressure;Samples;Min_cycle;Max_cycle;Signal;HPM_P1;HPM_P2
2023/05/14 00:01:58;;;;;;;3.80;1.73;;;17.90;61.30;;;;;;5026168;28;20709;-76
2023/05/14 00:04:24;;;;;;;3.58;1.83;;;17.80;61.50;;;;;;5029823;28;20385;-76
2023/05/14 00:06:49;;;;;;;2.30;2.08;;;17.80;61.70;;;;;;5041232;28;20488;-67
2023/05/14 00:09:15;;;;;;;2.67;1.85;;;17.70;61.90;;;;;;5029142;28;20041;-77
2023/05/14 00:11:41;;;;;;;2.25;1.90;;;17.70;61.90;;;;;;5011941;28;20471;-68
2023/05/14 00:14:07;;;;;;;2.63;2.00;;;17.70;62.00;;;;;;5029324;28;20033;-68
2023/05/14 00:16:32;;;;;;;3.05;1.75;;;17.60;62.30;;;;;;5028689;28;20034;-68
2023/05/14 00:18:58;;;;;;;2.08;1.50;;;17.60;62.30;;;;;;5030648;28;20034;-68
2023/05/14 00:21:24;;;;;;;2.17;1.95;;;17.50;62.30;;;;;;5028140;28;20034;-67
2023/05/14 00:23:49;;;;;;;2.53;2.20;;;17.50;62.50;;;;;;5023149;28;20026;-67
2023/05/14 00:26:15;;;;;;;3.13;1.75;;;17.40;62.50;;;;;;5026381;28;20041;-68
2023/05/14 00:28:41;;;;;;;3.85;2.13;;;17.40;62.70;;;;;;5028302;28;20026;-77
2023/05/14 00:31:09;;;;;;;1.90;1.63;;;17.30;62.70;;;;;;5029992;28;20048;-68
2023/05/14 00:33:35;;;;;;;3.40;2.03;;;17.30;62.80;;;;;;5027800;28;20045;-68
2023/05/14 00:36:00;;;;;;;3.28;2.13;;;17.20;63.10;;;;;;5029609;28;20120;-68
2023/05/14 00:38:27;;;;;;;5.10;2.03;;;17.20;63.20;;;;;;5028979;28;20104;-67
2023/05/14 00:40:53;;;;;;;2.90;2.15;;;17.10;63.40;;;;;;5023578;28;20234;-68
2023/05/14 00:43:22;;;;;;;2.40;1.77;;;17.10;63.40;;;;;;5030506;28;20147;-68
2023/05/14 00:45:53;;;;;;;3.65;2.00;;;17.10;63.50;;;;;;5024581;28;20037;-67
2023/05/14 00:48:19;;;;;;;5.22;1.92;;;17.10;63.60;;;;;;5027034;28;20030;-68
2023/05/14 00:50:45;;;;;;;3.75;2.03;;;17.00;63.50;;;;;;5023824;28;20029;-67
2023/05/14 00:53:12;;;;;;;2.65;2.10;;;17.00;63.60;;;;;;5030847;28;20030;-68
2023/05/14 00:55:39;;;;;;;3.55;2.20;;;17.00;63.80;;;;;;5028183;28;20053;-68
2023/05/14 00:58:09;;;;;;;2.03;1.85;;;16.90;63.80;;;;;;5030608;28;20026;-67
2023/05/14 01:00:35;;;;;;;4.68;2.25;;;16.90;63.90;;;;;;5023576;28;20475;-77
2023/05/14 01:03:03;;;;;;;2.97;1.80;;;16.90;64.10;;;;;;5030356;28;20030;-77
2023/05/14 01:06:10;;;;;;;5.60;2.30;;;16.90;64.20;;;;;;5036148;28;20118;-67
2023/05/14 01:09:09;;;;;;;3.28;2.03;;;16.90;64.10;;;;;;5036967;28;20029;-66
2023/05/14 01:11:43;;;;;;;2.65;2.10;;;16.90;64.20;;;;;;5046545;28;20124;-66
2023/05/14 01:14:35;;;;;;;3.92;1.88;;;16.90;64.30;;;;;;5027664;28;20488;-76
2023/05/14 01:17:05;;;;;;;2.60;2.37;;;17.00;64.10;;;;;;5032015;28;20014;-76
2023/05/14 01:19:36;;;;;;;3.38;1.92;;;17.00;64.30;;;;;;5027689;28;20018;-76
2023/05/14 01:22:02;;;;;;;1.67;1.38;;;16.90;64.30;;;;;;5026482;28;20109;-67
2023/05/14 01:24:28;;;;;;;2.65;1.92;;;16.90;64.40;;;;;;5035423;28;20130;-67
2023/05/14 01:27:00;;;;;;;5.45;1.95;;;16.90;64.40;;;;;;5019593;28;20026;-67
2023/05/14 01:29:27;;;;;;;4.35;1.88;;;17.00;64.40;;;;;;5020151;28;20030;-67
2023/05/14 01:31:56;;;;;;;2.53;1.85;;;16.90;64.40;;;;;;5030836;28;20419;-75
2023/05/14 01:34:23;;;;;;;3.90;2.38;;;16.90;64.40;;;;;;5029164;28;20472;-67
2023/05/14 01:36:50;;;;;;;6.40;2.28;;;16.90;64.60;;;;;;5028275;28;20053;-77
2023/05/14 01:39:17;;;;;;;5.80;2.28;;;16.80;64.90;;;;;;5035236;28;20435;-68
2023/05/14 01:41:44;;;;;;;2.97;1.80;;;16.70;65.20;;;;;;5033417;28;20018;-68
2023/05/14 01:44:10;;;;;;;4.28;2.40;;;16.70;65.30;;;;;;5036915;28;20029;-68
2023/05/14 01:46:36;;;;;;;5.95;2.65;;;16.60;65.60;;;;;;5031221;28;20357;-68
2023/05/14 01:49:01;;;;;;;2.78;1.90;;;16.60;65.70;;;;;;5028220;28;20133;-67
2023/05/14 01:51:27;;;;;;;3.15;2.55;;;16.50;65.80;;;;;;5031100;28;20026;-67
2023/05/14 01:53:53;;;;;;;2.55;1.92;;;16.50;66.00;;;;;;5031948;28;20543;-67
2023/05/14 01:56:22;;;;;;;3.60;2.78;;;16.60;66.00;;;;;;5013122;28;20100;-67
2023/05/14 01:58:48;;;;;;;2.88;2.28;;;16.50;66.00;;;;;;5030878;28;20084;-67
2023/05/14 02:01:14;;;;;;;2.83;1.67;;;16.50;66.20;;;;;;5030675;28;20496;-67
2023/05/14 02:03:40;;;;;;;2.90;1.98;;;16.40;66.10;;;;;;5032633;28;20026;-67
2023/05/14 02:06:06;;;;;;;1.85;1.58;;;16.40;66.30;;;;;;5021353;28;20029;-67
2023/05/14 02:08:31;;;;;;;2.47;1.83;;;16.40;66.40;;;;;;5031473;28;20065;-67
2023/05/14 02:10:57;;;;;;;2.15;1.80;;;16.40;66.40;;;;;;5030943;28;20501;-67
2023/05/14 02:13:24;;;;;;;2.70;2.03;;;16.30;66.50;;;;;;5020836;28;20103;-67
2023/05/14 02:15:50;;;;;;;3.88;2.17;;;16.30;66.70;;;;;;5030579;28;20025;-68
2023/05/14 02:18:16;;;;;;;3.33;2.47;;;16.30;66.80;;;;;;5030752;28;20123;-68
2023/05/14 02:20:41;;;;;;;2.72;1.92;;;16.20;66.90;;;;;;5031656;28;20025;-68
2023/05/14 02:23:07;;;;;;;2.72;2.03;;;16.20;67.10;;;;;;5029823;28;20045;-67
2023/05/14 02:25:33;;;;;;;3.65;2.10;;;16.20;67.00;;;;;;5029584;28;20084;-67
2023/05/14 02:27:59;;;;;;;3.10;2.45;;;16.20;67.30;;;;;;5031408;28;20436;-67
2023/05/14 02:30:24;;;;;;;3.67;2.47;;;16.10;68.00;;;;;;5031374;28;20598;-67
2023/05/14 02:32:50;;;;;;;4.93;2.08;;;16.10;67.50;;;;;;5033734;28;20361;-68
2023/05/14 02:35:16;;;;;;;3.55;1.92;;;16.10;67.50;;;;;;5032175;28;20037;-68
2023/05/14 02:37:41;;;;;;;3.35;1.92;;;16.00;67.50;;;;;;5031989;28;20032;-68
2023/05/14 02:40:08;;;;;;;3.75;2.03;;;16.00;67.60;;;;;;5031477;28;20022;-68
2023/05/14 02:42:34;;;;;;;4.30;2.65;;;15.90;67.60;;;;;;5031144;28;20071;-68
2023/05/14 02:44:59;;;;;;;2.30;2.10;;;15.90;67.90;;;;;;5032508;28;20033;-68
2023/05/14 02:47:25;;;;;;;4.28;2.75;;;15.80;67.90;;;;;;5030881;28;20091;-69
2023/05/14 02:49:51;;;;;;;3.88;2.42;;;15.80;68.30;;;;;;5030944;28;20442;-69
2023/05/14 02:52:17;;;;;;;12.18;2.28;;;15.70;68.30;;;;;;5027680;28;20045;-69
2023/05/14 02:54:42;;;;;;;3.30;2.40;;;15.70;68.50;;;;;;5030750;28;20032;-67
2023/05/14 02:57:08;;;;;;;4.93;1.83;;;15.60;68.60;;;;;;5027881;28;20054;-77
2023/05/14 02:59:34;;;;;;;3.72;2.38;;;15.50;68.70;;;;;;5029586;28;20108;-77
2023/05/14 03:01:59;;;;;;;2.85;2.10;;;15.50;68.90;;;;;;5030646;28;20037;-77
2023/05/14 03:04:25;;;;;;;5.00;2.45;;;15.50;69.00;;;;;;5028897;28;20040;-77
2023/05/14 03:06:51;;;;;;;3.58;2.58;;;15.40;68.90;;;;;;5012798;28;20041;-77
2023/05/14 03:09:16;;;;;;;2.40;2.00;;;15.40;69.10;;;;;;5027882;28;20044;-77
2023/05/14 03:11:42;;;;;;;2.95;2.05;;;15.40;69.00;;;;;;5030631;28;20038;-77
2023/05/14 03:14:07;;;;;;;3.75;2.40;;;15.40;69.30;;;;;;5029001;28;20564;-77
2023/05/14 03:16:33;;;;;;;7.18;2.67;;;15.40;69.30;;;;;;5036920;28;20044;-77
2023/05/14 03:18:59;;;;;;;4.07;2.72;;;15.40;69.30;;;;;;5030651;28;20025;-79
2023/05/14 03:21:25;;;;;;;4.35;2.47;;;15.40;69.40;;;;;;5035993;28;20042;-78
2023/05/14 03:23:52;;;;;;;3.03;2.17;;;15.40;69.50;;;;;;5035010;28;20025;-68
2023/05/14 03:26:18;;;;;;;10.48;2.63;;;15.40;69.50;;;;;;5030698;28;20117;-66
2023/05/14 03:28:44;;;;;;;4.22;2.70;;;15.30;69.50;;;;;;5037377;28;20087;-66
2023/05/14 03:31:09;;;;;;;6.47;3.08;;;15.40;69.60;;;;;;5028866;28;20029;-66
2023/05/14 03:33:35;;;;;;;4.13;2.28;;;15.30;69.60;;;;;;5030511;28;20034;-66
2023/05/14 03:36:01;;;;;;;4.55;2.30;;;15.30;69.60;;;;;;5030225;28;20108;-76
2023/05/14 03:38:26;;;;;;;4.57;2.75;;;15.30;69.60;;;;;;5018693;28;20072;-76
2023/05/14 03:40:52;;;;;;;4.75;2.47;;;15.30;69.60;;;;;;5028433;28;20086;-77
2023/05/14 03:43:18;;;;;;;4.85;2.42;;;15.20;69.60;;;;;;5024248;28;20401;-67
2023/05/14 03:45:43;;;;;;;5.78;2.25;;;15.20;69.90;;;;;;5021868;28;20554;-67
2023/05/14 03:48:09;;;;;;;6.20;2.83;;;15.10;70.00;;;;;;5021033;28;20069;-77
2023/05/14 03:50:35;;;;;;;1.92;1.75;;;15.10;70.30;;;;;;5016941;28;20060;-77
2023/05/14 03:53:01;;;;;;;2.97;2.25;;;15.00;70.20;;;;;;5027866;28;20036;-78
2023/05/14 03:55:26;;;;;;;5.78;3.05;;;15.00;70.30;;;;;;5022765;28;20046;-66
2023/05/14 03:57:52;;;;;;;3.83;2.10;;;15.00;70.40;;;;;;5018896;28;20760;-66
2023/05/14 04:00:19;;;;;;;5.40;2.53;;;15.00;70.60;;;;;;5021276;28;20489;-66
2023/05/14 04:02:45;;;;;;;5.00;3.35;;;14.90;70.70;;;;;;5022283;28;20029;-67
2023/05/14 04:05:11;;;;;;;3.47;2.92;;;14.90;70.80;;;;;;5029529;28;20044;-75
2023/05/14 04:07:37;;;;;;;3.70;2.55;;;14.90;70.80;;;;;;5030052;28;20389;-77
2023/05/14 04:10:03;;;;;;;5.03;2.05;;;14.90;70.90;;;;;;5033956;28;20033;-76
2023/05/14 04:12:28;;;;;;;3.42;2.35;;;14.90;71.00;;;;;;5028318;28;20370;-66
2023/05/14 04:14:55;;;;;;;3.65;2.35;;;14.90;71.00;;;;;;5032375;28;20104;-77
2023/05/14 04:17:21;;;;;;;4.32;2.65;;;14.90;70.90;;;;;;5029146;28;20021;-77
2023/05/14 04:19:46;;;;;;;3.45;2.67;;;15.00;71.10;;;;;;5030571;28;20040;-76
2023/05/14 04:22:12;;;;;;;4.45;2.55;;;15.00;71.10;;;;;;5028089;28;20112;-66
2023/05/14 04:24:38;;;;;;;4.70;3.03;;;15.00;71.20;;;;;;5030312;28;20052;-76
2023/05/14 04:27:03;;;;;;;7.32;3.42;;;14.90;71.20;;;;;;5027415;28;20120;-77
2023/05/14 04:29:29;;;;;;;4.22;2.70;;;14.90;71.40;;;;;;5029801;28;20485;-66
2023/05/14 04:31:55;;;;;;;4.10;2.58;;;14.90;71.50;;;;;;5028420;28;20022;-76
2023/05/14 04:34:21;;;;;;;4.82;2.28;;;14.90;71.60;;;;;;5028878;28;20104;-67
2023/05/14 04:36:46;;;;;;;4.63;2.05;;;14.80;71.50;;;;;;5035189;28;20148;-68
2023/05/14 04:39:12;;;;;;;6.65;2.38;;;14.80;71.60;;;;;;5035532;28;20026;-77
2023/05/14 04:41:38;;;;;;;3.00;2.00;;;14.80;71.70;;;;;;5041017;28;20014;-78
2023/05/14 04:44:04;;;;;;;3.50;2.05;;;14.70;71.70;;;;;;5039976;28;20144;-78
2023/05/14 04:46:29;;;;;;;4.07;2.45;;;14.70;71.90;;;;;;5032851;28;20029;-78
2023/05/14 04:48:55;;;;;;;6.47;2.72;;;14.70;72.00;;;;;;5039769;28;20030;-67
2023/05/14 04:51:22;;;;;;;3.40;1.77;;;14.70;72.10;;;;;;5038948;28;20542;-67
2023/05/14 04:53:47;;;;;;;2.97;2.13;;;14.70;72.20;;;;;;5033175;28;20407;-67
2023/05/14 04:56:13;;;;;;;3.05;2.58;;;14.70;72.90;;;;;;5025454;28;20050;-78
2023/05/14 04:58:39;;;;;;;6.63;2.33;;;14.80;72.40;;;;;;5032151;28;20457;-78
2023/05/14 05:01:05;;;;;;;4.22;2.45;;;14.90;72.40;;;;;;5041293;28;20025;-67
2023/05/14 05:03:31;;;;;;;5.07;2.35;;;15.00;72.20;;;;;;5032070;28;20084;-76
2023/05/14 05:05:57;;;;;;;5.22;2.75;;;15.10;72.10;;;;;;5031343;28;20036;-76
2023/05/14 05:08:23;;;;;;;4.28;2.35;;;15.20;72.20;;;;;;5029944;28;20108;-76
2023/05/14 05:10:48;;;;;;;4.40;2.35;;;15.30;72.00;;;;;;5032418;28;20437;-67
2023/05/14 05:13:15;;;;;;;2.90;1.90;;;15.40;71.80;;;;;;5025675;28;20034;-67
2023/05/14 05:15:42;;;;;;;4.30;2.50;;;15.40;71.60;;;;;;5031801;28;20069;-67
2023/05/14 05:18:07;;;;;;;3.65;2.00;;;15.50;71.60;;;;;;5026513;28;20036;-67
2023/05/14 05:20:33;;;;;;;5.00;2.58;;;15.60;71.50;;;;;;5031857;28;20029;-67
2023/05/14 05:22:59;;;;;;;2.55;2.13;;;15.60;71.40;;;;;;5035065;28;20021;-67
2023/05/14 05:25:25;;;;;;;5.82;3.15;;;15.60;71.40;;;;;;5033680;28;20037;-68
2023/05/14 05:27:51;;;;;;;2.53;1.98;;;15.60;71.40;;;;;;5031756;28;20024;-77
2023/05/14 05:30:16;;;;;;;3.28;2.10;;;15.60;71.20;;;;;;5032432;28;20038;-67
2023/05/14 05:32:42;;;;;;;2.83;2.10;;;15.70;71.40;;;;;;5031487;28;20036;-77
2023/05/14 05:35:08;;;;;;;3.25;2.33;;;15.70;71.30;;;;;;5032596;28;20037;-67
2023/05/14 05:37:34;;;;;;;6.25;2.10;;;15.70;71.40;;;;;;5034526;28;20511;-68
2023/05/14 05:40:00;;;;;;;5.45;2.72;;;15.70;71.50;;;;;;5016252;28;20034;-77
2023/05/14 05:42:25;;;;;;;3.92;2.20;;;15.70;71.50;;;;;;5025772;28;20117;-77
2023/05/14 05:44:51;;;;;;;6.05;3.17;;;15.70;71.30;;;;;;5028069;28;20064;-78
2023/05/14 05:47:16;;;;;;;4.20;2.20;;;15.80;71.30;;;;;;5025981;28;20049;-77
2023/05/14 05:49:42;;;;;;;2.35;1.92;;;15.80;71.30;;;;;;5027154;28;20060;-77
2023/05/14 05:52:09;;;;;;;3.30;2.20;;;15.80;71.30;;;;;;5028015;28;20021;-77
2023/05/14 05:54:34;;;;;;;4.28;2.45;;;15.90;71.40;;;;;;5011015;28;20503;-77
2023/05/14 05:57:00;;;;;;;4.68;2.60;;;16.00;71.20;;;;;;5027363;28;20045;-77
2023/05/14 05:59:26;;;;;;;4.50;1.98;;;16.10;71.10;;;;;;5027002;28;20040;-77
2023/05/14 06:01:52;;;;;;;4.05;2.22;;;16.10;70.80;;;;;;5028371;28;20022;-77
2023/05/14 06:04:17;;;;;;;4.28;2.38;;;16.10;71.40;;;;;;5017119;28;20474;-67
2023/05/14 06:06:43;;;;;;;3.03;2.05;;;16.20;70.90;;;;;;5026307;28;20056;-66
2023/05/14 06:09:09;;;;;;;2.88;2.03;;;16.20;70.80;;;;;;5035166;28;20047;-67
2023/05/14 06:11:35;;;;;;;6.57;2.30;;;16.20;70.60;;;;;;5019150;28;20034;-67
2023/05/14 06:14:00;;;;;;;3.53;2.25;;;16.20;70.70;;;;;;5030003;28;20083;-67
2023/05/14 06:16:26;;;;;;;2.42;2.13;;;16.30;70.60;;;;;;5030324;28;20057;-77
2023/05/14 06:18:53;;;;;;;4.72;2.22;;;16.30;70.40;;;;;;5025925;28;20108;-77
2023/05/14 06:21:19;;;;;;;4.00;2.50;;;16.40;70.40;;;;;;5030743;28;20025;-77
2023/05/14 06:23:45;;;;;;;5.53;1.77;;;16.50;70.30;;;;;;5031329;28;20028;-76
2023/05/14 06:26:10;;;;;;;3.17;1.88;;;16.60;70.20;;;;;;5026392;28;20025;-76
2023/05/14 06:28:36;;;;;;;3.13;2.25;;;16.70;70.10;;;;;;5030502;28;20029;-76
2023/05/14 06:31:02;;;;;;;2.35;1.90;;;16.70;69.90;;;;;;5029681;28;20025;-67
2023/05/14 06:33:31;;;;;;;4.50;2.03;;;16.80;69.70;;;;;;5031217;28;20029;-77
2023/05/14 06:36:04;;;;;;;2.67;1.40;;;16.90;69.50;;;;;;5027580;28;20028;-77
2023/05/14 06:38:29;;;;;;;2.67;1.50;;;17.00;69.30;;;;;;5036872;28;20037;-66
2023/05/14 06:40:55;;;;;;;3.05;2.00;;;17.20;69.20;;;;;;5029900;28;20029;-67
2023/05/14 06:43:21;;;;;;;3.67;1.77;;;17.30;69.00;;;;;;5039416;28;20029;-76
2023/05/14 06:45:51;;;;;;;2.60;1.75;;;17.40;68.70;;;;;;5029488;28;20322;-67
2023/05/14 06:48:20;;;;;;;2.03;1.50;;;17.50;68.50;;;;;;5038859;28;20036;-75
2023/05/14 06:50:47;;;;;;;2.38;1.50;;;17.60;68.40;;;;;;5031040;28;20593;-76
2023/05/14 06:53:13;;;;;;;2.30;1.13;;;17.80;68.10;;;;;;5027347;28;20026;-76
2023/05/14 06:55:39;;;;;;;1.95;1.73;;;17.90;67.80;;;;;;5026004;28;20041;-67
2023/05/14 06:58:06;;;;;;;2.38;1.52;;;18.00;67.60;;;;;;5026422;28;20032;-66
2023/05/14 07:00:32;;;;;;;2.00;1.67;;;18.10;67.40;;;;;;5029813;28;20503;-66
2023/05/14 07:02:57;;;;;;;2.67;1.50;;;18.20;67.40;;;;;;5028407;28;20021;-76
2023/05/14 07:05:24;;;;;;;3.15;2.47;;;18.30;67.10;;;;;;5030436;28;20036;-76
2023/05/14 07:07:50;;;;;;;4.18;1.60;;;18.30;66.90;;;;;;5029086;28;20706;-75
2023/05/14 07:10:16;;;;;;;3.20;1.58;;;18.30;67.00;;;;;;5028549;28;20068;-76
2023/05/14 07:12:41;;;;;;;3.78;1.60;;;18.30;66.90;;;;;;5029317;28;20512;-75
2023/05/14 07:15:08;;;;;;;2.78;2.42;;;18.40;66.60;;;;;;5028464;28;20057;-76
2023/05/14 07:17:33;;;;;;;3.20;2.15;;;18.40;66.40;;;;;;5029143;28;20030;-76
2023/05/14 07:19:59;;;;;;;2.72;1.85;;;18.40;66.20;;;;;;5031035;28;20522;-76
2023/05/14 07:22:25;;;;;;;2.22;1.50;;;18.50;66.20;;;;;;5028397;28;20113;-76
2023/05/14 07:24:50;;;;;;;2.45;1.55;;;18.60;65.90;;;;;;5031504;28;20022;-76
2023/05/14 07:27:16;;;;;;;2.97;1.52;;;18.70;65.50;;;;;;5026760;28;20079;-76
2023/05/14 07:29:42;;;;;;;1.70;1.60;;;18.70;65.50;;;;;;5026981;28;20113;-76
2023/05/14 07:32:08;;;;;;;1.73;1.63;;;18.70;65.30;;;;;;5027096;28;20021;-76
2023/05/14 07:34:34;;;;;;;1.38;1.25;;;18.70;65.40;;;;;;5029548;28;20040;-77
2023/05/14 07:37:00;;;;;;;2.00;1.55;;;18.80;65.30;;;;;;5020770;28;20083;-77
2023/05/14 07:39:26;;;;;;;2.13;1.73;;;18.90;65.00;;;;;;5028643;28;20440;-77
2023/05/14 07:41:53;;;;;;;2.88;1.20;;;19.00;64.90;;;;;;5025754;28;20022;-77
2023/05/14 07:44:19;;;;;;;2.10;1.10;;;19.00;64.80;;;;;;5030167;28;20032;-77
2023/05/14 07:46:46;;;;;;;3.38;1.08;;;19.10;64.70;;;;;;5029071;28;20057;-77
2023/05/14 07:49:11;;;;;;;3.13;1.40;;;19.20;64.50;;;;;;5029151;28;20037;-67
2023/05/14 07:51:37;;;;;;;2.78;1.60;;;19.40;64.30;;;;;;5033770;28;20099;-66
2023/05/14 07:54:03;;;;;;;2.78;1.58;;;19.40;63.90;;;;;;5029370;28;20075;-66
2023/05/14 07:56:29;;;;;;;1.80;1.40;;;19.50;63.60;;;;;;5026386;28;20049;-66
2023/05/14 07:58:55;;;;;;;2.10;1.48;;;19.60;63.40;;;;;;5026141;28;20069;-77
2023/05/14 08:01:21;;;;;;;5.85;1.38;;;19.70;63.10;;;;;;5028001;28;20057;-77
2023/05/14 08:03:47;;;;;;;5.75;2.08;;;19.80;63.00;;;;;;5039381;28;20009;-77
2023/05/14 08:06:13;;;;;;;1.65;1.52;;;19.80;62.20;;;;;;5036676;28;20021;-67
2023/05/14 08:08:39;;;;;;;1.95;1.52;;;19.90;62.10;;;;;;5034795;28;20022;-77
2023/05/14 08:11:05;;;;;;;1.20;1.10;;;19.90;61.90;;;;;;5032858;28;20040;-67
2023/05/14 08:13:31;;;;;;;1.75;1.30;;;20.10;61.90;;;;;;5033493;28;20025;-76
2023/05/14 08:15:56;;;;;;;2.85;1.63;;;20.20;61.90;;;;;;5028729;28;20026;-77
2023/05/14 08:18:22;;;;;;;2.10;1.85;;;20.30;61.80;;;;;;5026394;28;20567;-67
2023/05/14 08:20:47;;;;;;;1.60;1.50;;;20.40;61.80;;;;;;5029338;28;20025;-66
2023/05/14 08:23:13;;;;;;;2.03;1.52;;;20.40;61.70;;;;;;5036621;28;20028;-66
2023/05/14 08:25:39;;;;;;;2.08;1.35;;;20.50;61.70;;;;;;5032649;28;20455;-75
2023/05/14 08:28:05;;;;;;;1.85;1.33;;;20.60;61.60;;;;;;5031197;28;20099;-76
2023/05/14 08:30:30;;;;;;;2.08;1.60;;;20.70;61.50;;;;;;5031708;28;20377;-76
2023/05/14 08:32:57;;;;;;;2.25;1.70;;;20.80;60.60;;;;;;5032062;28;20067;-76
2023/05/14 08:35:23;;;;;;;3.05;1.27;;;20.90;60.40;;;;;;5030843;28;20029;-67
2023/05/14 08:37:49;;;;;;;1.92;1.38;;;21.00;59.60;;;;;;5033885;28;20094;-67
2023/05/14 08:40:15;;;;;;;2.30;1.23;;;21.10;59.50;;;;;;5031065;28;20021;-67
2023/05/14 08:42:42;;;;;;;1.52;1.20;;;21.10;59.50;;;;;;5035319;28;20028;-77
2023/05/14 08:45:32;;;;;;;1.17;1.05;;;21.10;59.40;;;;;;5029021;28;20052;-66
2023/05/14 08:48:00;;;;;;;0.68;0.68;;;21.10;58.80;;;;;;5033264;28;20029;-67
2023/05/14 08:50:26;;;;;;;1.52;0.90;;;21.10;58.30;;;;;;5028138;28;20634;-76
2023/05/14 08:52:52;;;;;;;2.53;0.85;;;21.30;58.30;;;;;;5035004;28;20040;-77
2023/05/14 08:55:18;;;;;;;1.00;0.85;;;21.40;57.60;;;;;;5026756;28;20488;-79
2023/05/14 08:57:45;;;;;;;1.63;1.08;;;21.60;57.10;;;;;;5029024;28;20071;-80
2023/05/14 09:00:11;;;;;;;3.90;0.70;;;21.80;56.60;;;;;;5028799;28;20103;-78
2023/05/14 09:02:39;;;;;;;1.08;0.90;;;21.90;55.90;;;;;;5026879;28;20045;-76
2023/05/14 09:05:06;;;;;;;0.98;0.85;;;22.20;54.90;;;;;;5029519;28;20473;-66
2023/05/14 09:07:32;;;;;;;0.70;0.70;;;22.30;53.60;;;;;;5026829;28;20021;-66
2023/05/14 09:09:58;;;;;;;1.02;0.65;;;22.40;53.70;;;;;;5026662;28;20113;-67
2023/05/14 09:12:25;;;;;;;1.60;1.27;;;22.40;53.60;;;;;;5027549;28;20125;-67
2023/05/14 09:14:50;;;;;;;1.52;1.00;;;22.40;52.90;;;;;;5036237;28;20045;-66
2023/05/14 09:17:17;;;;;;;0.77;0.77;;;22.30;53.20;;;;;;5031090;28;20057;-75
2023/05/14 09:19:46;;;;;;;1.23;1.08;;;22.30;53.50;;;;;;5032308;28;20525;-75
2023/05/14 09:22:14;;;;;;;1.42;0.90;;;22.30;53.30;;;;;;5037341;28;20021;-76
2023/05/14 09:24:40;;;;;;;1.30;0.80;;;22.40;52.60;;;;;;5030784;28;20036;-71
2023/05/14 09:27:07;;;;;;;0.77;0.70;;;22.50;52.20;;;;;;5038216;28;20453;-66
2023/05/14 09:29:33;;;;;;;0.50;0.50;;;22.60;51.50;;;;;;5034135;28;20032;-76
2023/05/14 09:32:03;;;;;;;0.70;0.70;;;22.70;51.60;;;;;;5024431;28;20022;-66
2023/05/14 09:34:36;;;;;;;0.82;0.70;;;22.80;51.10;;;;;;5037780;28;20104;-66
2023/05/14 09:37:06;;;;;;;0.70;0.70;;;23.00;51.00;;;;;;5035299;28;20033;-66
2023/05/14 09:39:35;;;;;;;1.25;0.90;;;23.10;50.10;;;;;;5031491;28;20033;-66
2023/05/14 09:42:01;;;;;;;1.30;1.00;;;23.20;49.40;;;;;;5023391;28;20117;-66
2023/05/14 09:44:27;;;;;;;0.68;0.68;;;23.30;49.00;;;;;;5035052;28;20084;-66
2023/05/14 09:46:54;;;;;;;1.52;1.27;;;23.40;48.70;;;;;;5022898;28;20034;-65
2023/05/14 09:49:20;;;;;;;0.70;0.60;;;23.50;47.80;;;;;;5030061;28;20051;-75
2023/05/14 09:51:47;;;;;;;1.08;0.90;;;23.50;47.40;;;;;;5032129;28;20029;-75
2023/05/14 09:54:12;;;;;;;2.35;0.70;;;23.70;47.50;;;;;;5024862;28;20029;-66
2023/05/14 09:56:38;;;;;;;0.60;0.60;;;23.80;47.10;;;;;;5020192;28;20562;-67
2023/05/14 09:59:04;;;;;;;1.17;0.80;;;24.00;47.10;;;;;;5030400;28;20037;-77
2023/05/14 10:01:31;;;;;;;1.08;0.98;;;24.10;46.70;;;;;;5023564;28;20022;-77
2023/05/14 10:03:57;;;;;;;1.17;0.85;;;24.30;46.40;;;;;;5031168;28;20056;-67
2023/05/14 10:06:28;;;;;;;0.73;0.73;;;24.40;46.30;;;;;;5035977;28;20026;-67
2023/05/14 10:08:56;;;;;;;1.35;1.10;;;24.50;45.90;;;;;;5038836;28;20043;-68
2023/05/14 10:11:25;;;;;;;1.80;0.80;;;24.50;45.90;;;;;;5023297;28;20029;-66
2023/05/14 10:14:19;;;;;;;1.77;1.02;;;24.60;45.90;;;;;;5036021;28;20026;-67
2023/05/14 10:16:52;;;;;;;1.25;1.15;;;24.60;45.30;;;;;;5035353;28;20124;-68
2023/05/14 10:19:22;;;;;;;0.98;0.88;;;24.70;44.90;;;;;;5034408;28;20022;-77
2023/05/14 10:21:52;;;;;;;1.13;0.80;;;24.80;44.90;;;;;;5032993;28;20041;-77
2023/05/14 10:24:18;;;;;;;1.08;0.70;;;24.80;43.90;;;;;;5032762;28;20025;-67
2023/05/14 10:26:44;;;;;;;0.77;0.77;;;24.90;44.70;;;;;;5036396;28;20465;-68
2023/05/14 10:29:11;;;;;;;1.33;1.10;;;25.00;45.10;;;;;;5034007;28;20081;-67
2023/05/14 10:31:55;;;;;;;1.67;1.00;;;25.10;45.10;;;;;;5029745;28;20030;-68
2023/05/14 10:34:30;;;;;;;1.73;1.27;;;25.10;44.70;;;;;;5034377;28;20033;-77
2023/05/14 10:36:59;;;;;;;1.88;1.65;;;25.10;45.00;;;;;;5025056;28;20075;-67
2023/05/14 10:39:40;;;;;;;0.75;0.75;;;25.10;45.20;;;;;;5030578;28;20029;-77
2023/05/14 10:42:07;;;;;;;1.10;1.00;;;25.20;45.70;;;;;;5028013;28;20045;-78
2023/05/14 10:44:34;;;;;;;1.35;1.25;;;25.40;45.90;;;;;;5033791;28;20029;-77
2023/05/14 10:47:01;;;;;;;0.85;0.85;;;25.50;45.20;;;;;;5028204;28;20063;-78
2023/05/14 10:49:27;;;;;;;1.27;1.17;;;25.40;45.40;;;;;;5026225;28;20029;-78
2023/05/14 10:51:53;;;;;;;1.00;0.95;;;25.40;45.30;;;;;;5027307;28;20025;-77
2023/05/14 10:54:18;;;;;;;0.88;0.80;;;25.40;45.60;;;;;;5029089;28;20415;-68
2023/05/14 10:56:48;;;;;;;0.90;0.77;;;25.50;45.70;;;;;;5020781;28;20049;-67
2023/05/14 10:59:16;;;;;;;0.80;0.80;;;25.60;45.50;;;;;;5026179;28;20448;-67
2023/05/14 11:01:42;;;;;;;0.98;0.80;;;25.70;44.90;;;;;;5029939;28;20509;-67
2023/05/14 11:04:08;;;;;;;1.30;0.88;;;25.70;44.80;;;;;;5030771;28;20120;-67
2023/05/14 11:06:36;;;;;;;0.70;0.70;;;25.70;44.80;;;;;;5029731;28;20030;-68
2023/05/14 11:09:03;;;;;;;7.72;0.90;;;25.90;44.10;;;;;;5028526;28;20087;-67
2023/05/14 11:11:29;;;;;;;1.25;1.10;;;26.00;43.40;;;;;;5026289;28;20547;-76
2023/05/14 11:13:56;;;;;;;1.08;0.90;;;26.20;42.00;;;;;;5030401;28;20108;-77
2023/05/14 11:16:23;;;;;;;0.90;0.88;;;26.30;41.10;;;;;;5028641;28;20065;-77
2023/05/14 11:18:59;;;;;;;0.95;0.93;;;26.30;40.60;;;;;;5011650;28;20033;-76
2023/05/14 11:21:25;;;;;;;1.15;0.95;;;26.50;40.80;;;;;;5026320;28;20414;-76
2023/05/14 11:23:50;;;;;;;1.23;0.88;;;26.60;40.80;;;;;;5030414;28;20108;-77
2023/05/14 11:26:16;;;;;;;1.02;0.93;;;26.70;40.00;;;;;;5028403;28;20030;-67
2023/05/14 11:28:43;;;;;;;1.00;0.80;;;26.80;39.90;;;;;;5008422;28;20029;-77
2023/05/14 11:31:09;;;;;;;1.95;0.80;;;26.90;40.10;;;;;;5029121;28;20033;-77
2023/05/14 11:33:35;;;;;;;0.88;0.77;;;27.10;39.70;;;;;;5029173;28;20036;-77
2023/05/14 11:36:01;;;;;;;0.80;0.80;;;27.20;39.80;;;;;;5028746;28;20030;-67
2023/05/14 11:38:26;;;;;;;1.20;0.82;;;27.30;39.60;;;;;;5025377;28;20496;-67
2023/05/14 11:40:54;;;;;;;1.17;0.82;;;27.40;39.60;;;;;;5027431;28;20029;-67
2023/05/14 11:43:23;;;;;;;0.90;0.77;;;27.50;39.70;;;;;;5028675;28;20021;-76
2023/05/14 11:45:53;;;;;;;0.75;0.75;;;27.70;39.90;;;;;;5023462;28;20021;-77
2023/05/14 11:48:22;;;;;;;1.45;1.00;;;27.80;39.70;;;;;;5030959;28;20411;-67
2023/05/14 11:50:49;;;;;;;0.80;0.80;;;27.90;38.90;;;;;;5034398;28;20103;-67
2023/05/14 11:53:23;;;;;;;1.10;1.00;;;27.90;38.40;;;;;;5032408;28;20576;-67
2023/05/14 11:55:49;;;;;;;0.80;0.80;;;27.90;37.60;;;;;;5028361;28;20074;-67
2023/05/14 11:58:16;;;;;;;1.00;0.80;;;27.80;37.30;;;;;;5029104;28;20041;-67
2023/05/14 12:00:44;;;;;;;2.60;0.80;;;27.70;37.20;;;;;;5021078;28;20021;-66
2023/05/14 12:03:10;;;;;;;0.80;0.80;;;27.50;37.10;;;;;;5016134;28;20018;-77
2023/05/14 12:05:39;;;;;;;0.80;0.70;;;27.20;37.20;;;;;;5029000;28;20444;-77
2023/05/14 12:08:31;;;;;;;0.90;0.90;;;27.00;37.40;;;;;;5030073;28;20359;-67
2023/05/14 12:10:59;;;;;;;0.75;0.75;;;26.70;37.60;;;;;;5014428;28;20049;-67
2023/05/14 12:13:35;;;;;;;1.13;0.77;;;26.40;37.60;;;;;;5025161;28;20030;-67
2023/05/14 12:16:01;;;;;;;0.70;0.70;;;26.30;38.00;;;;;;5024959;28;20358;-67
2023/05/14 12:18:31;;;;;;;1.08;1.02;;;26.20;37.90;;;;;;5023926;28;20052;-67
2023/05/14 12:21:07;;;;;;;1.05;0.95;;;26.10;38.10;;;;;;5017224;28;20040;-67
2023/05/14 12:23:32;;;;;;;0.75;0.73;;;26.10;37.20;;;;;;5019208;28;20041;-67
2023/05/14 12:26:04;;;;;;;1.17;0.88;;;26.30;36.80;;;;;;5016953;28;20026;-67
2023/05/14 12:28:31;;;;;;;1.23;1.13;;;26.50;36.70;;;;;;5053935;28;20030;-67
2023/05/14 12:30:57;;;;;;;2.47;1.40;;;26.60;37.10;;;;;;5013850;28;20026;-77
2023/05/14 12:33:25;;;;;;;1.10;1.00;;;26.80;37.10;;;;;;5029758;28;20060;-77
2023/05/14 12:36:00;;;;;;;1.75;0.80;;;26.80;37.20;;;;;;5023658;28;20036;-67
2023/05/14 12:38:25;;;;;;;1.02;0.93;;;26.80;37.20;;;;;;5018036;28;20022;-67
2023/05/14 12:40:51;;;;;;;0.85;0.85;;;26.70;36.60;;;;;;5017258;28;20029;-66
2023/05/14 12:43:16;;;;;;;1.42;1.33;;;26.70;37.00;;;;;;5028030;28;20464;-67
2023/05/14 12:45:43;;;;;;;0.95;0.95;;;26.60;37.30;;;;;;5023051;28;20025;-67
2023/05/14 12:48:08;;;;;;;1.02;0.93;;;26.50;37.60;;;;;;5018786;28;20038;-67